sensor_id;sensor_type;location;lat;lon;timestamp;pressure;altitude;pressure_sealevel;temperature;humidity
12785;BME280;6456;42.680;23.260;2024-02-28T00:00:18;94878.47;;;9.16;92.23
12785;BME280;6456;42.680;23.260;2024-02-28T00:02:50;94861.66;;;9.04;93.22
12785;BME280;6456;42.680;23.260;2024-02-28T00:05:19;94913.47;;;9.43;93.57
12785;BME280;6456;42.680;23.260;2024-02-28T00:07:46;94950.31;;;9.62;93.16
12785;BME280;6456;42.680;23.260;2024-02-28T00:10:13;94877.00;;;9.07;93.31
12785;BME280;6456;42.680;23.260;2024-02-28T00:12:42;94974.97;;;9.68;93.79
12785;BME280;6456;42.680;23.260;2024-02-28T00:15:11;94927.41;;;9.37;93.54
12785;BME280;6456;42.680;23.260;2024-02-28T00:17:44;94914.69;;;9.34;93.63
12785;BME280;6456;42.680;23.260;2024-02-28T00:20:11;94986.69;;;9.72;93.85
12785;BME280;6456;42.680;23.260;2024-02-28T00:22:39;94987.13;;;9.76;93.68
12785;BME280;6456;42.680;23.260;2024-02-28T00:25:08;95004.09;;;9.80;93.15
12785;BME280;6456;42.680;23.260;2024-02-28T00:27:37;94940.13;;;9.40;93.14
12785;BME280;6456;42.680;23.260;2024-02-28T00:30:05;94981.59;;;9.51;93.77
12785;BME280;6456;42.680;23.260;2024-02-28T00:32:32;94959.50;;;9.32;94.05
12785;BME280;6456;42.680;23.260;2024-02-28T00:35:00;94982.56;;;9.37;94.32
12785;BME280;6456;42.680;23.260;2024-02-28T00:37:31;94916.56;;;8.99;94.92
12785;BME280;6456;42.680;23.260;2024-02-28T00:39:58;94915.16;;;8.96;95.73
12785;BME280;6456;42.680;23.260;2024-02-28T00:42:27;94875.41;;;8.59;95.91
12785;BME280;6456;42.680;23.260;2024-02-28T00:44:57;94955.53;;;9.02;97.17
12785;BME280;6456;42.680;23.260;2024-02-28T00:47:24;95010.81;;;9.35;97.64
12785;BME280;6456;42.680;23.260;2024-02-28T00:49:52;94997.06;;;9.33;97.08
12785;BME280;6456;42.680;23.260;2024-02-28T00:52:20;95004.56;;;9.29;97.42
12785;BME280;6456;42.680;23.260;2024-02-28T00:54:47;94893.41;;;8.68;97.46
12785;BME280;6456;42.680;23.260;2024-02-28T00:57:14;95006.38;;;9.29;97.72
12785;BME280;6456;42.680;23.260;2024-02-28T00:59:42;94887.03;;;8.50;97.65
12785;BME280;6456;42.680;23.260;2024-02-28T01:02:10;94908.53;;;8.66;98.94
12785;BME280;6456;42.680;23.260;2024-02-28T01:04:37;94954.66;;;8.88;99.00
12785;BME280;6456;42.680;23.260;2024-02-28T01:07:04;94989.25;;;9.05;98.89
12785;BME280;6456;42.680;23.260;2024-02-28T01:09:32;94893.47;;;8.47;98.93
12785;BME280;6456;42.680;23.260;2024-02-28T01:11:59;94990.53;;;9.16;99.14
12785;BME280;6456;42.680;23.260;2024-02-28T01:14:26;94997.44;;;9.23;99.17
12785;BME280;6456;42.680;23.260;2024-02-28T01:16:53;94964.00;;;8.97;99.11
12785;BME280;6456;42.680;23.260;2024-02-28T01:19:20;95002.50;;;9.25;99.24
12785;BME280;6456;42.680;23.260;2024-02-28T01:21:47;94989.94;;;9.14;98.43
12785;BME280;6456;42.680;23.260;2024-02-28T01:24:15;94907.03;;;8.57;98.74
12785;BME280;6456;42.680;23.260;2024-02-28T01:26:43;94920.00;;;8.65;99.43
12785;BME280;6456;42.680;23.260;2024-02-28T01:29:10;94993.94;;;9.10;99.48
12785;BME280;6456;42.680;23.260;2024-02-28T01:31:37;94985.59;;;8.99;98.83
12785;BME280;6456;42.680;23.260;2024-02-28T01:34:04;94958.59;;;8.71;98.93
12785;BME280;6456;42.680;23.260;2024-02-28T01:36:31;94980.91;;;8.88;99.61
12785;BME280;6456;42.680;23.260;2024-02-28T01:38:58;94938.28;;;8.52;100.00
12785;BME280;6456;42.680;23.260;2024-02-28T01:41:25;94952.69;;;8.63;100.00
12785;BME280;6456;42.680;23.260;2024-02-28T01:43:53;94952.06;;;8.61;99.84
12785;BME280;6456;42.680;23.260;2024-02-28T01:46:23;94945.59;;;8.57;99.75
12785;BME280;6456;42.680;23.260;2024-02-28T01:48:51;94957.72;;;8.64;99.92
12785;BME280;6456;42.680;23.260;2024-02-28T01:51:19;94954.72;;;8.67;100.00
12785;BME280;6456;42.680;23.260;2024-02-28T01:53:46;94999.22;;;8.82;100.00
12785;BME280;6456;42.680;23.260;2024-02-28T01:56:14;94905.91;;;8.11;100.00
12785;BME280;6456;42.680;23.260;2024-02-28T01:58:43;94908.28;;;8.06;100.00
12785;BME280;6456;42.680;23.260;2024-02-28T02:01:16;94961.81;;;8.39;100.00
12785;BME280;6456;42.680;23.260;2024-02-28T02:03:43;94969.94;;;8.44;100.00
12785;BME280;6456;42.680;23.260;2024-02-28T02:06:11;94965.63;;;8.36;100.00
12785;BME280;6456;42.680;23.260;2024-02-28T02:08:38;94986.38;;;8.59;100.00
12785;BME280;6456;42.680;23.260;2024-02-28T02:11:06;94938.41;;;8.37;100.00
12785;BME280;6456;42.680;23.260;2024-02-28T02:13:33;94938.41;;;8.37;100.00
12785;BME280;6456;42.680;23.260;2024-02-28T02:16:01;94865.50;;;7.99;100.00
12785;BME280;6456;42.680;23.260;2024-02-28T02:18:29;94985.16;;;8.62;100.00
12785;BME280;6456;42.680;23.260;2024-02-28T02:21:02;94909.16;;;8.13;100.00
12785;BME280;6456;42.680;23.260;2024-02-28T02:23:33;94965.94;;;8.55;100.00
12785;BME280;6456;42.680;23.260;2024-02-28T02:26:01;94944.41;;;8.31;100.00
12785;BME280;6456;42.680;23.260;2024-02-28T02:28:28;95017.53;;;8.75;100.00
12785;BME280;6456;42.680;23.260;2024-02-28T02:30:55;94975.59;;;8.48;100.00
12785;BME280;6456;42.680;23.260;2024-02-28T02:33:22;94950.44;;;8.32;100.00
12785;BME280;6456;42.680;23.260;2024-02-28T02:35:49;95022.34;;;8.72;100.00
12785;BME280;6456;42.680;23.260;2024-02-28T02:38:16;94977.78;;;8.44;100.00
12785;BME280;6456;42.680;23.260;2024-02-28T02:40:48;94973.91;;;8.40;100.00
12785;BME280;6456;42.680;23.260;2024-02-28T02:43:15;94946.31;;;8.23;100.00
12785;BME280;6456;42.680;23.260;2024-02-28T02:45:42;94914.03;;;7.95;100.00
12785;BME280;6456;42.680;23.260;2024-02-28T02:48:10;94981.66;;;8.27;100.00
12785;BME280;6456;42.680;23.260;2024-02-28T02:50:37;95020.28;;;8.61;100.00
12785;BME280;6456;42.680;23.260;2024-02-28T02:53:07;94970.13;;;8.21;100.00
12785;BME280;6456;42.680;23.260;2024-02-28T02:55:34;94932.00;;;7.98;100.00
12785;BME280;6456;42.680;23.260;2024-02-28T02:58:03;95015.22;;;8.59;100.00
12785;BME280;6456;42.680;23.260;2024-02-28T03:00:30;94930.44;;;8.03;100.00
12785;BME280;6456;42.680;23.260;2024-02-28T03:02:57;94921.91;;;7.95;100.00
12785;BME280;6456;42.680;23.260;2024-02-28T03:05:24;94914.47;;;7.98;100.00
12785;BME280;6456;42.680;23.260;2024-02-28T03:07:51;94962.13;;;8.29;100.00
12785;BME280;6456;42.680;23.260;2024-02-28T03:10:18;95006.34;;;8.60;100.00
12785;BME280;6456;42.680;23.260;2024-02-28T03:12:45;95017.69;;;8.67;100.00
12785;BME280;6456;42.680;23.260;2024-02-28T03:15:14;94954.47;;;8.28;100.00
12785;BME280;6456;42.680;23.260;2024-02-28T03:17:41;94982.78;;;8.39;100.00
12785;BME280;6456;42.680;23.260;2024-02-28T03:20:09;94970.63;;;8.31;100.00
12785;BME280;6456;42.680;23.260;2024-02-28T03:22:38;95022.94;;;8.67;100.00
12785;BME280;6456;42.680;23.260;2024-02-28T03:25:07;94984.78;;;8.37;100.00
12785;BME280;6456;42.680;23.260;2024-02-28T03:27:34;94953.91;;;8.11;100.00
12785;BME280;6456;42.680;23.260;2024-02-28T03:30:01;94974.25;;;8.30;100.00
12785;BME280;6456;42.680;23.260;2024-02-28T03:32:30;95008.31;;;8.52;100.00
12785;BME280;6456;42.680;23.260;2024-02-28T03:34:57;95015.28;;;8.45;100.00
12785;BME280;6456;42.680;23.260;2024-02-28T03:37:24;94991.41;;;8.33;100.00
12785;BME280;6456;42.680;23.260;2024-02-28T03:39:51;95027.66;;;8.51;100.00
12785;BME280;6456;42.680;23.260;2024-02-28T03:42:18;95028.84;;;8.48;100.00
12785;BME280;6456;42.680;23.260;2024-02-28T03:44:45;95037.16;;;8.52;100.00
12785;BME280;6456;42.680;23.260;2024-02-28T03:47:12;95001.00;;;8.26;100.00
12785;BME280;6456;42.680;23.260;2024-02-28T03:49:40;95022.28;;;8.37;100.00
12785;BME280;6456;42.680;23.260;2024-02-28T03:52:07;95029.78;;;8.41;100.00
12785;BME280;6456;42.680;23.260;2024-02-28T03:54:34;95036.72;;;8.48;100.00
12785;BME280;6456;42.680;23.260;2024-02-28T03:57:01;95003.19;;;8.22;100.00
12785;BME280;6456;42.680;23.260;2024-02-28T03:59:28;94957.13;;;7.92;100.00
12785;BME280;6456;42.680;23.260;2024-02-28T04:01:55;95046.16;;;8.43;100.00
12785;BME280;6456;42.680;23.260;2024-02-28T04:04:22;94968.44;;;7.93;100.00
12785;BME280;6456;42.680;23.260;2024-02-28T04:06:52;94973.47;;;7.94;100.00
12785;BME280;6456;42.680;23.260;2024-02-28T04:09:19;95024.25;;;8.29;100.00
12785;BME280;6456;42.680;23.260;2024-02-28T04:11:46;95043.84;;;8.33;100.00
12785;BME280;6456;42.680;23.260;2024-02-28T04:14:13;94952.34;;;7.74;100.00
12785;BME280;6456;42.680;23.260;2024-02-28T04:16:41;94922.91;;;7.51;100.00
12785;BME280;6456;42.680;23.260;2024-02-28T04:19:09;95054.75;;;8.15;100.00
12785;BME280;6456;42.680;23.260;2024-02-28T04:21:36;95035.28;;;8.03;100.00
12785;BME280;6456;42.680;23.260;2024-02-28T04:24:06;95044.56;;;8.06;100.00
12785;BME280;6456;42.680;23.260;2024-02-28T04:26:33;94941.47;;;7.35;100.00
12785;BME280;6456;42.680;23.260;2024-02-28T04:29:00;94969.03;;;7.52;100.00
12785;BME280;6456;42.680;23.260;2024-02-28T04:31:30;94986.53;;;7.66;100.00
12785;BME280;6456;42.680;23.260;2024-02-28T04:33:57;95010.47;;;7.85;100.00
12785;BME280;6456;42.680;23.260;2024-02-28T04:36:25;95002.97;;;7.82;100.00
12785;BME280;6456;42.680;23.260;2024-02-28T04:38:52;94989.63;;;7.76;100.00
12785;BME280;6456;42.680;23.260;2024-02-28T04:41:20;94973.81;;;7.63;100.00
12785;BME280;6456;42.680;23.260;2024-02-28T04:43:47;94951.31;;;7.54;100.00
12785;BME280;6456;42.680;23.260;2024-02-28T04:46:14;94956.97;;;7.51;100.00
12785;BME280;6456;42.680;23.260;2024-02-28T04:48:41;95001.63;;;7.86;100.00
12785;BME280;6456;42.680;23.260;2024-02-28T04:51:08;94988.84;;;7.76;100.00
12785;BME280;6456;42.680;23.260;2024-02-28T04:53:35;95042.94;;;8.05;100.00
12785;BME280;6456;42.680;23.260;2024-02-28T04:56:03;95026.19;;;7.85;100.00
12785;BME280;6456;42.680;23.260;2024-02-28T04:58:32;94963.22;;;7.36;100.00
12785;BME280;6456;42.680;23.260;2024-02-28T05:00:59;94923.34;;;7.19;100.00
12785;BME280;6456;42.680;23.260;2024-02-28T05:03:26;94980.53;;;7.51;100.00
12785;BME280;6456;42.680;23.260;2024-02-28T05:05:54;95004.97;;;7.58;100.00
12785;BME280;6456;42.680;23.260;2024-02-28T05:08:21;94987.19;;;7.54;100.00
12785;BME280;6456;42.680;23.260;2024-02-28T05:10:49;94948.28;;;7.15;100.00
12785;BME280;6456;42.680;23.260;2024-02-28T05:13:17;94993.47;;;7.38;100.00
12785;BME280;6456;42.680;23.260;2024-02-28T05:15:45;94936.94;;;7.08;100.00
12785;BME280;6456;42.680;23.260;2024-02-28T05:18:12;95012.22;;;7.56;100.00
12785;BME280;6456;42.680;23.260;2024-02-28T05:20:40;94978.47;;;7.32;100.00
12785;BME280;6456;42.680;23.260;2024-02-28T05:23:07;94956.06;;;7.08;100.00
12785;BME280;6456;42.680;23.260;2024-02-28T05:25:38;94939.53;;;7.08;100.00
12785;BME280;6456;42.680;23.260;2024-02-28T05:28:08;95083.09;;;7.91;100.00
12785;BME280;6456;42.680;23.260;2024-02-28T05:33:58;94958.94;;;7.14;100.00
12785;BME280;6456;42.680;23.260;2024-02-28T05:36:30;94971.47;;;7.18;100.00
12785;BME280;6456;42.680;23.260;2024-02-28T05:38:59;95029.53;;;7.57;100.00
12785;BME280;6456;42.680;23.260;2024-02-28T05:41:27;95029.34;;;7.59;100.00
12785;BME280;6456;42.680;23.260;2024-02-28T05:43:56;94965.13;;;7.27;100.00
12785;BME280;6456;42.680;23.260;2024-02-28T05:46:23;95024.28;;;7.57;100.00
12785;BME280;6456;42.680;23.260;2024-02-28T05:48:51;95083.47;;;7.88;100.00
12785;BME280;6456;42.680;23.260;2024-02-28T05:51:20;95027.38;;;7.61;100.00
12785;BME280;6456;42.680;23.260;2024-02-28T05:53:48;95005.38;;;7.41;100.00
12785;BME280;6456;42.680;23.260;2024-02-28T05:56:15;95109.59;;;8.17;100.00
12785;BME280;6456;42.680;23.260;2024-02-28T05:58:46;95057.22;;;7.81;100.00
12785;BME280;6456;42.680;23.260;2024-02-28T06:01:15;95037.63;;;7.62;100.00
12785;BME280;6456;42.680;23.260;2024-02-28T06:03:42;94999.69;;;7.37;100.00
12785;BME280;6456;42.680;23.260;2024-02-28T06:06:12;94999.78;;;7.44;100.00
12785;BME280;6456;42.680;23.260;2024-02-28T06:08:41;95064.16;;;7.89;100.00
12785;BME280;6456;42.680;23.260;2024-02-28T06:11:08;95011.75;;;7.53;100.00
12785;BME280;6456;42.680;23.260;2024-02-28T06:13:36;95078.03;;;8.04;100.00
12785;BME280;6456;42.680;23.260;2024-02-28T06:16:03;95100.38;;;8.21;100.00
12785;BME280;6456;42.680;23.260;2024-02-28T06:18:31;95022.50;;;7.79;100.00
12785;BME280;6456;42.680;23.260;2024-02-28T06:20:59;95073.34;;;8.20;100.00
12785;BME280;6456;42.680;23.260;2024-02-28T06:23:27;95002.38;;;7.80;100.00
12785;BME280;6456;42.680;23.260;2024-02-28T06:25:55;95018.22;;;7.93;100.00
12785;BME280;6456;42.680;23.260;2024-02-28T06:28:22;95128.88;;;8.66;100.00
12785;BME280;6456;42.680;23.260;2024-02-28T06:30:50;95073.56;;;8.40;100.00
12785;BME280;6456;42.680;23.260;2024-02-28T06:33:18;95123.69;;;8.73;100.00
12785;BME280;6456;42.680;23.260;2024-02-28T06:35:46;95015.63;;;8.14;100.00
12785;BME280;6456;42.680;23.260;2024-02-28T06:38:14;95043.09;;;8.39;100.00
12785;BME280;6456;42.680;23.260;2024-02-28T06:40:41;95081.72;;;8.73;100.00
12785;BME280;6456;42.680;23.260;2024-02-28T06:43:09;95053.56;;;8.60;100.00
12785;BME280;6456;42.680;23.260;2024-02-28T06:45:36;95116.31;;;9.11;100.00
12785;BME280;6456;42.680;23.260;2024-02-28T06:48:07;95122.00;;;9.14;100.00
12785;BME280;6456;42.680;23.260;2024-02-28T06:50:34;95098.94;;;9.10;100.00
12785;BME280;6456;42.680;23.260;2024-02-28T06:53:01;95104.81;;;9.12;100.00
12785;BME280;6456;42.680;23.260;2024-02-28T06:55:29;95138.59;;;9.49;100.00
12785;BME280;6456;42.680;23.260;2024-02-28T06:57:56;95048.34;;;8.94;100.00
12785;BME280;6456;42.680;23.260;2024-02-28T07:00:25;95092.88;;;9.37;100.00
12785;BME280;6456;42.680;23.260;2024-02-28T07:02:52;95114.78;;;9.57;100.00
12785;BME280;6456;42.680;23.260;2024-02-28T07:05:19;95099.78;;;9.44;100.00
12785;BME280;6456;42.680;23.260;2024-02-28T07:07:46;95059.50;;;9.31;100.00
12785;BME280;6456;42.680;23.260;2024-02-28T07:10:13;95090.13;;;9.58;100.00
12785;BME280;6456;42.680;23.260;2024-02-28T07:12:41;95073.53;;;9.44;100.00
12785;BME280;6456;42.680;23.260;2024-02-28T07:15:08;95027.53;;;9.21;100.00
12785;BME280;6456;42.680;23.260;2024-02-28T07:17:37;95029.16;;;9.22;100.00
12785;BME280;6456;42.680;23.260;2024-02-28T07:20:05;95015.56;;;9.12;100.00
12785;BME280;6456;42.680;23.260;2024-02-28T07:22:32;95059.66;;;9.23;100.00
12785;BME280;6456;42.680;23.260;2024-02-28T07:24:59;95133.03;;;9.65;100.00
12785;BME280;6456;42.680;23.260;2024-02-28T07:27:26;95085.66;;;9.52;100.00
12785;BME280;6456;42.680;23.260;2024-02-28T07:29:53;95129.84;;;9.76;100.00
12785;BME280;6456;42.680;23.260;2024-02-28T07:32:20;95106.59;;;9.73;100.00
12785;BME280;6456;42.680;23.260;2024-02-28T07:34:50;95029.03;;;9.36;100.00
12785;BME280;6456;42.680;23.260;2024-02-28T07:37:17;95075.44;;;9.70;100.00
12785;BME280;6456;42.680;23.260;2024-02-28T07:39:44;95084.78;;;9.79;100.00
12785;BME280;6456;42.680;23.260;2024-02-28T07:42:13;95124.31;;;10.05;100.00
12785;BME280;6456;42.680;23.260;2024-02-28T07:44:40;95103.06;;;10.00;100.00
12785;BME280;6456;42.680;23.260;2024-02-28T07:47:07;95029.78;;;9.71;100.00
12785;BME280;6456;42.680;23.260;2024-02-28T07:49:34;95077.88;;;10.19;100.00
12785;BME280;6456;42.680;23.260;2024-02-28T07:52:04;95126.09;;;10.52;100.00
12785;BME280;6456;42.680;23.260;2024-02-28T07:54:31;95054.53;;;10.03;100.00
12785;BME280;6456;42.680;23.260;2024-02-28T07:56:59;95103.44;;;10.58;100.00
12785;BME280;6456;42.680;23.260;2024-02-28T07:59:26;95136.25;;;10.88;100.00
12785;BME280;6456;42.680;23.260;2024-02-28T08:01:53;95101.84;;;10.76;100.00
12785;BME280;6456;42.680;23.260;2024-02-28T08:04:21;95062.34;;;10.70;100.00
12785;BME280;6456;42.680;23.260;2024-02-28T08:06:48;95099.78;;;11.18;98.98
12785;BME280;6456;42.680;23.260;2024-02-28T08:09:23;95152.03;;;11.67;99.03
12785;BME280;6456;42.680;23.260;2024-02-28T08:11:50;95128.13;;;11.68;97.18
12785;BME280;6456;42.680;23.260;2024-02-28T08:14:20;95141.88;;;11.90;94.62
12785;BME280;6456;42.680;23.260;2024-02-28T08:16:47;95063.66;;;11.51;92.75
12785;BME280;6456;42.680;23.260;2024-02-28T08:19:14;95000.88;;;11.41;91.62
12785;BME280;6456;42.680;23.260;2024-02-28T08:26:56;95139.91;;;12.61;88.68
12785;BME280;6456;42.680;23.260;2024-02-28T08:29:26;95131.34;;;12.65;86.85
12785;BME280;6456;42.680;23.260;2024-02-28T08:31:53;95082.53;;;12.50;85.88
12785;BME280;6456;42.680;23.260;2024-02-28T08:34:20;95026.69;;;12.15;85.95
12785;BME280;6456;42.680;23.260;2024-02-28T08:36:49;95091.41;;;12.55;85.84
12785;BME280;6456;42.680;23.260;2024-02-28T08:42:08;95106.66;;;12.84;83.72
12785;BME280;6456;42.680;23.260;2024-02-28T08:44:37;95067.53;;;12.75;83.87
12785;BME280;6456;42.680;23.260;2024-02-28T08:47:05;95135.50;;;13.17;83.07
12785;BME280;6456;42.680;23.260;2024-02-28T08:49:38;95097.53;;;13.05;82.34
12785;BME280;6456;42.680;23.260;2024-02-28T08:52:05;95059.00;;;12.73;82.06
12785;BME280;6456;42.680;23.260;2024-02-28T08:54:32;95067.91;;;12.78;82.52
12785;BME280;6456;42.680;23.260;2024-02-28T08:57:00;95059.28;;;12.65;82.56
12785;BME280;6456;42.680;23.260;2024-02-28T08:59:28;95134.09;;;13.15;83.22
12785;BME280;6456;42.680;23.260;2024-02-28T09:01:58;95098.44;;;12.93;83.64
12785;BME280;6456;42.680;23.260;2024-02-28T09:04:25;95045.44;;;12.69;83.48
12785;BME280;6456;42.680;23.260;2024-02-28T09:06:53;95119.19;;;13.20;83.21
12785;BME280;6456;42.680;23.260;2024-02-28T09:09:23;95127.66;;;13.29;82.38
12785;BME280;6456;42.680;23.260;2024-02-28T09:11:52;95076.91;;;12.96;82.01
12785;BME280;6456;42.680;23.260;2024-02-28T09:14:21;95127.56;;;13.42;82.14
12785;BME280;6456;42.680;23.260;2024-02-28T09:16:50;95097.91;;;13.15;82.09
12785;BME280;6456;42.680;23.260;2024-02-28T09:19:17;95078.25;;;13.05;81.13
12785;BME280;6456;42.680;23.260;2024-02-28T09:21:45;95121.88;;;13.38;81.14
12785;BME280;6456;42.680;23.260;2024-02-28T09:24:17;95113.31;;;13.43;81.35
12785;BME280;6456;42.680;23.260;2024-02-28T09:26:44;95057.84;;;13.18;80.47
12785;BME280;6456;42.680;23.260;2024-02-28T09:29:11;95121.56;;;13.71;80.20
12785;BME280;6456;42.680;23.260;2024-02-28T09:31:38;95031.44;;;13.36;79.45
12785;BME280;6456;42.680;23.260;2024-02-28T09:34:09;95057.44;;;13.76;78.79
12785;BME280;6456;42.680;23.260;2024-02-28T09:36:40;95098.34;;;14.09;77.49
12785;BME280;6456;42.680;23.260;2024-02-28T09:39:07;95125.03;;;14.44;76.11
12785;BME280;6456;42.680;23.260;2024-02-28T09:41:37;95008.56;;;13.96;75.36
12785;BME280;6456;42.680;23.260;2024-02-28T09:44:06;95095.28;;;14.72;74.46
12785;BME280;6456;42.680;23.260;2024-02-28T09:46:34;95044.22;;;14.53;73.89
12785;BME280;6456;42.680;23.260;2024-02-28T09:49:03;95051.72;;;14.56;74.01
12785;BME280;6456;42.680;23.260;2024-02-28T09:51:33;95091.19;;;14.88;72.58
12785;BME280;6456;42.680;23.260;2024-02-28T09:54:03;95000.69;;;14.38;71.97
12785;BME280;6456;42.680;23.260;2024-02-28T09:56:30;95091.09;;;15.06;71.63
12785;BME280;6456;42.680;23.260;2024-02-28T09:58:58;95043.84;;;14.80;71.28
12785;BME280;6456;42.680;23.260;2024-02-28T10:01:29;95076.81;;;15.18;70.95
12785;BME280;6456;42.680;23.260;2024-02-28T10:03:59;95083.41;;;15.27;70.43
12785;BME280;6456;42.680;23.260;2024-02-28T10:06:27;95048.59;;;15.12;70.02
12785;BME280;6456;42.680;23.260;2024-02-28T10:08:56;95017.25;;;15.09;69.59
12785;BME280;6456;42.680;23.260;2024-02-28T10:11:23;95057.69;;;15.39;70.91
12785;BME280;6456;42.680;23.260;2024-02-28T10:13:52;94992.03;;;14.95;70.24
12785;BME280;6456;42.680;23.260;2024-02-28T10:16:20;95072.72;;;15.46;69.60
12785;BME280;6456;42.680;23.260;2024-02-28T10:18:47;95066.69;;;15.38;69.70
12785;BME280;6456;42.680;23.260;2024-02-28T10:21:15;95064.97;;;15.44;68.19
12785;BME280;6456;42.680;23.260;2024-02-28T10:23:49;95059.91;;;15.54;68.12
12785;BME280;6456;42.680;23.260;2024-02-28T10:26:17;94985.78;;;15.24;67.67
12785;BME280;6456;42.680;23.260;2024-02-28T10:28:44;95004.88;;;15.61;66.58
12785;BME280;6456;42.680;23.260;2024-02-28T10:31:11;95024.94;;;15.80;65.87
12785;BME280;6456;42.680;23.260;2024-02-28T10:33:41;95053.47;;;16.13;65.88
12785;BME280;6456;42.680;23.260;2024-02-28T10:36:08;94954.47;;;15.61;64.70
12785;BME280;6456;42.680;23.260;2024-02-28T10:38:37;95049.63;;;16.21;65.30
12785;BME280;6456;42.680;23.260;2024-02-28T10:41:05;95015.09;;;16.21;65.26
12785;BME280;6456;42.680;23.260;2024-02-28T10:43:35;95022.91;;;16.27;66.58
12785;BME280;6456;42.680;23.260;2024-02-28T10:46:02;95028.19;;;16.11;66.10
12785;BME280;6456;42.680;23.260;2024-02-28T10:48:29;95027.09;;;16.23;65.09
12785;BME280;6456;42.680;23.260;2024-02-28T10:50:56;95009.34;;;16.12;64.54
12785;BME280;6456;42.680;23.260;2024-02-28T10:53:32;95004.06;;;16.12;63.94
12785;BME280;6456;42.680;23.260;2024-02-28T10:56:04;95047.72;;;16.33;64.22
12785;BME280;6456;42.680;23.260;2024-02-28T10:58:36;94984.56;;;16.07;65.53
12785;BME280;6456;42.680;23.260;2024-02-28T11:01:04;95026.47;;;16.33;64.99
12785;BME280;6456;42.680;23.260;2024-02-28T11:03:32;95026.59;;;16.26;64.69
12785;BME280;6456;42.680;23.260;2024-02-28T11:05:59;95036.44;;;16.26;65.11
12785;BME280;6456;42.680;23.260;2024-02-28T11:08:27;95020.97;;;16.23;65.21
12785;BME280;6456;42.680;23.260;2024-02-28T11:10:55;94984.72;;;16.00;63.74
12785;BME280;6456;42.680;23.260;2024-02-28T11:13:23;95013.34;;;16.26;63.41
12785;BME280;6456;42.680;23.260;2024-02-28T11:15:52;95011.47;;;16.27;63.75
12785;BME280;6456;42.680;23.260;2024-02-28T11:18:21;94929.63;;;15.79;62.59
12785;BME280;6456;42.680;23.260;2024-02-28T11:20:48;94943.25;;;15.71;62.83
12785;BME280;6456;42.680;23.260;2024-02-28T11:23:17;95012.69;;;16.19;62.75
12785;BME280;6456;42.680;23.260;2024-02-28T11:25:45;94989.13;;;16.23;62.02
12785;BME280;6456;42.680;23.260;2024-02-28T11:28:12;94961.75;;;16.22;61.68
12785;BME280;6456;42.680;23.260;2024-02-28T11:30:40;94952.84;;;16.28;62.08
12785;BME280;6456;42.680;23.260;2024-02-28T11:33:14;94930.72;;;16.39;60.81
12785;BME280;6456;42.680;23.260;2024-02-28T11:35:44;94937.81;;;16.50;58.91
12785;BME280;6456;42.680;23.260;2024-02-28T11:38:11;94945.56;;;16.68;55.70
12785;BME280;6456;42.680;23.260;2024-02-28T11:40:48;94944.59;;;16.75;54.59
12785;BME280;6456;42.680;23.260;2024-02-28T11:43:20;94931.22;;;16.70;54.47
12785;BME280;6456;42.680;23.260;2024-02-28T11:45:47;94950.69;;;16.92;54.70
12785;BME280;6456;42.680;23.260;2024-02-28T11:48:16;94905.63;;;16.63;55.43
12785;BME280;6456;42.680;23.260;2024-02-28T11:50:43;94882.63;;;16.52;54.50
12785;BME280;6456;42.680;23.260;2024-02-28T11:53:13;94935.81;;;16.91;55.64
12785;BME280;6456;42.680;23.260;2024-02-28T11:55:44;94919.13;;;16.79;58.27
12785;BME280;6456;42.680;23.260;2024-02-28T11:58:13;94867.50;;;16.53;54.95
12785;BME280;6456;42.680;23.260;2024-02-28T12:00:47;94907.41;;;16.75;53.48
12785;BME280;6456;42.680;23.260;2024-02-28T12:03:16;94868.97;;;16.49;54.97
12785;BME280;6456;42.680;23.260;2024-02-28T12:05:46;94896.63;;;16.64;53.94
12785;BME280;6456;42.680;23.260;2024-02-28T12:08:17;94898.47;;;16.64;52.12
12785;BME280;6456;42.680;23.260;2024-02-28T12:10:46;94920.28;;;16.66;52.12
12785;BME280;6456;42.680;23.260;2024-02-28T12:13:16;94956.50;;;16.89;51.89
12785;BME280;6456;42.680;23.260;2024-02-28T12:15:44;94876.56;;;16.40;52.18
12785;BME280;6456;42.680;23.260;2024-02-28T12:18:15;94861.34;;;16.36;52.25
12785;BME280;6456;42.680;23.260;2024-02-28T12:20:43;94940.22;;;17.02;51.94
12785;BME280;6456;42.680;23.260;2024-02-28T12:23:12;94933.44;;;17.11;51.73
12785;BME280;6456;42.680;23.260;2024-02-28T12:25:47;94899.47;;;16.96;51.64
12785;BME280;6456;42.680;23.260;2024-02-28T12:28:14;94888.59;;;16.98;51.79
12785;BME280;6456;42.680;23.260;2024-02-28T12:30:42;94823.50;;;16.62;52.41
12785;BME280;6456;42.680;23.260;2024-02-28T12:33:10;94890.59;;;17.07;52.10
12785;BME280;6456;42.680;23.260;2024-02-28T12:35:37;94837.81;;;16.78;54.69
12785;BME280;6456;42.680;23.260;2024-02-28T12:38:09;94858.34;;;17.04;52.43
12785;BME280;6456;42.680;23.260;2024-02-28T12:40:41;94915.84;;;17.48;53.18
12785;BME280;6456;42.680;23.260;2024-02-28T12:43:08;94910.97;;;17.62;51.86
12785;BME280;6456;42.680;23.260;2024-02-28T12:45:35;94879.53;;;17.37;50.68
12785;BME280;6456;42.680;23.260;2024-02-28T12:48:03;94893.50;;;17.49;50.03
12785;BME280;6456;42.680;23.260;2024-02-28T12:50:31;94860.59;;;17.33;51.61
12785;BME280;6456;42.680;23.260;2024-02-28T12:52:59;94859.06;;;17.38;52.10
12785;BME280;6456;42.680;23.260;2024-02-28T12:55:28;94858.03;;;17.44;50.10
12785;BME280;6456;42.680;23.260;2024-02-28T12:57:55;94918.91;;;17.78;49.34
12785;BME280;6456;42.680;23.260;2024-02-28T13:00:25;94814.34;;;17.13;49.31
12785;BME280;6456;42.680;23.260;2024-02-28T13:02:52;94878.34;;;17.50;48.90
12785;BME280;6456;42.680;23.260;2024-02-28T13:05:20;94898.75;;;17.61;48.91
12785;BME280;6456;42.680;23.260;2024-02-28T13:07:47;94872.91;;;17.40;49.02
12785;BME280;6456;42.680;23.260;2024-02-28T13:10:15;94857.63;;;17.30;49.31
12785;BME280;6456;42.680;23.260;2024-02-28T13:12:58;94926.69;;;17.85;50.06
12785;BME280;6456;42.680;23.260;2024-02-28T13:15:25;94889.19;;;17.65;49.92
12785;BME280;6456;42.680;23.260;2024-02-28T13:17:53;94849.28;;;17.43;50.37